Time;durP1;ratioP1;P1;durP2;ratioP2;P2;SDS_P1;SDS_P2;PMS_P1;PMS_P2;Temp;Humidity;BMP_temperature;BMP_pressure;BME280_temperature;BME280_humidity;BME280_pressure;Samples;Min_cycle;Max_cycle;Signal;HPM_P1;HPM_P2
2021/12/20 00:00:55;;;;;;;26.20;5.05;;;6.30;99.90;;;;;;5011792;28;20048;-79
2021/12/20 00:03:20;;;;;;;38.83;5.13;;;7.20;99.90;;;;;;4995138;28;20125;-79
2021/12/20 00:05:46;;;;;;;26.45;3.88;;;6.30;99.90;;;;;;4994736;28;20145;-79
2021/12/20 00:08:12;;;;;;;33.38;6.15;;;6.30;99.90;;;;;;5012205;28;20405;-79
2021/12/20 00:10:37;;;;;;;21.17;3.90;;;6.30;99.90;;;;;;5011068;28;20485;-79
2021/12/20 00:13:03;;;;;;;22.70;3.72;;;6.30;99.90;;;;;;5010805;28;20056;-80
2021/12/20 00:15:29;;;;;;;29.73;4.70;;;6.30;99.90;;;;;;5011104;28;20441;-80
2021/12/20 00:17:54;;;;;;;29.08;4.45;;;6.30;99.90;;;;;;5011199;28;20050;-80
2021/12/20 00:20:21;;;;;;;35.25;5.40;;;6.20;99.90;;;;;;5010405;28;20045;-80
2021/12/20 00:22:47;;;;;;;23.98;3.80;;;6.30;99.90;;;;;;5011104;28;20056;-80
2021/12/20 00:25:13;;;;;;;35.10;4.43;;;6.20;99.90;;;;;;4995255;28;20077;-80
2021/12/20 00:27:39;;;;;;;26.75;3.92;;;6.20;99.90;;;;;;4993963;28;20119;-80
2021/12/20 00:30:06;;;;;;;26.92;4.53;;;6.30;99.90;;;;;;5011337;28;20507;-80
2021/12/20 00:32:32;;;;;;;31.75;5.32;;;6.20;99.90;;;;;;5010571;28;20038;-80
2021/12/20 00:34:58;;;;;;;26.73;4.80;;;6.20;99.90;;;;;;5010549;28;20408;-80
2021/12/20 00:40:21;;;;;;;27.35;5.05;;;6.20;99.90;;;;;;5020342;28;20413;-81
2021/12/20 00:42:51;;;;;;;27.55;3.42;;;6.20;99.90;;;;;;4994858;28;20045;-80
2021/12/20 00:45:19;;;;;;;28.52;3.50;;;6.10;99.90;;;;;;5024267;28;20172;-80
2021/12/20 00:47:45;;;;;;;23.85;3.67;;;6.10;99.90;;;;;;4998824;28;20046;-80
2021/12/20 00:50:13;;;;;;;30.50;5.10;;;6.10;99.90;;;;;;5013281;28;20370;-80
2021/12/20 00:52:40;;;;;;;29.83;3.78;;;6.10;99.90;;;;;;4995006;28;20449;-81
2021/12/20 00:55:07;;;;;;;19.42;3.60;;;6.10;99.90;;;;;;4994114;28;20042;-80
2021/12/20 00:57:32;;;;;;;22.75;2.65;;;6.50;99.90;;;;;;4993860;28;20478;-80
2021/12/20 00:59:58;;;;;;;24.08;3.30;;;6.10;99.90;;;;;;4991123;28;20088;-81
2021/12/20 01:02:24;;;;;;;19.33;3.25;;;6.10;99.90;;;;;;5009862;28;20409;-80
2021/12/20 01:04:50;;;;;;;22.90;4.47;;;6.30;99.90;;;;;;4993936;28;20049;-80
2021/12/20 01:07:15;;;;;;;19.33;2.70;;;6.10;99.90;;;;;;5012654;28;20166;-80
2021/12/20 01:09:41;;;;;;;20.63;2.95;;;6.00;99.90;;;;;;5014644;28;20050;-80
2021/12/20 01:12:14;;;;;;;15.52;2.97;;;6.10;99.90;;;;;;5012305;28;20056;-81
2021/12/20 01:14:40;;;;;;;17.70;3.70;;;6.10;99.90;;;;;;5009831;28;20050;-80
2021/12/20 01:17:05;;;;;;;21.00;4.25;;;6.10;99.90;;;;;;4996270;28;20375;-80
2021/12/20 01:19:32;;;;;;;23.20;3.65;;;6.00;99.90;;;;;;4985925;28;20048;-80
2021/12/20 01:21:58;;;;;;;18.42;4.45;;;6.10;99.90;;;;;;5010225;28;20500;-80
2021/12/20 01:24:24;;;;;;;15.18;2.47;;;6.10;99.90;;;;;;4993333;28;20046;-80
2021/12/20 01:26:49;;;;;;;18.02;3.22;;;6.10;99.90;;;;;;4995622;28;20044;-80
2021/12/20 01:29:15;;;;;;;24.58;2.70;;;6.10;99.90;;;;;;4996259;28;20108;-80
2021/12/20 01:31:41;;;;;;;21.50;3.85;;;6.90;99.90;;;;;;4996860;28;20128;-80
2021/12/20 01:34:07;;;;;;;25.60;4.47;;;6.10;99.90;;;;;;4994835;28;20054;-80
2021/12/20 01:36:32;;;;;;;23.98;4.25;;;6.10;99.90;;;;;;5018195;28;20080;-80
2021/12/20 01:38:58;;;;;;;18.90;3.05;;;6.10;99.90;;;;;;4993935;28;20092;-80
2021/12/20 01:41:24;;;;;;;23.20;3.20;;;6.10;99.90;;;;;;5010106;28;20421;-80
2021/12/20 01:43:49;;;;;;;20.98;3.40;;;6.10;99.90;;;;;;4993134;28;20095;-80
2021/12/20 01:46:15;;;;;;;16.38;2.70;;;6.00;99.90;;;;;;5010278;28;20129;-80
2021/12/20 01:48:43;;;;;;;15.38;3.35;;;6.10;99.90;;;;;;5002186;28;20077;-80
2021/12/20 01:53:41;;;;;;;19.75;2.53;;;5.90;99.90;;;;;;5009650;28;20046;-80
2021/12/20 01:56:08;;;;;;;13.60;2.30;;;6.10;99.90;;;;;;4994002;28;20488;-80
2021/12/20 01:58:33;;;;;;;16.92;2.85;;;6.10;99.90;;;;;;5000246;28;20068;-80
2021/12/20 02:03:34;;;;;;;12.05;2.30;;;6.10;99.90;;;;;;5009612;28;20050;-79
2021/12/20 02:06:03;;;;;;;21.00;2.88;;;6.00;99.90;;;;;;5001739;28;20084;-80
2021/12/20 02:08:29;;;;;;;19.65;3.13;;;6.00;99.90;;;;;;5009837;28;20046;-80
2021/12/20 02:11:09;;;;;;;20.58;2.83;;;6.00;99.90;;;;;;4992283;28;20427;-80
2021/12/20 02:13:35;;;;;;;15.50;2.53;;;6.00;99.90;;;;;;5019229;28;20064;-80
2021/12/20 02:16:01;;;;;;;14.43;2.50;;;6.00;99.90;;;;;;4993706;28;20052;-80
2021/12/20 02:18:28;;;;;;;15.32;2.35;;;6.00;99.90;;;;;;5009744;28;20050;-80
2021/12/20 02:20:54;;;;;;;13.25;2.35;;;6.00;99.90;;;;;;4992594;28;20042;-80
2021/12/20 02:23:20;;;;;;;15.20;2.58;;;6.00;99.90;;;;;;5009919;28;20438;-80
2021/12/20 02:25:46;;;;;;;15.80;2.95;;;5.90;99.90;;;;;;4985960;28;20049;-80
2021/12/20 02:28:14;;;;;;;13.07;2.25;;;6.00;99.90;;;;;;5026371;28;20046;-80
2021/12/20 02:30:50;;;;;;;22.10;2.85;;;6.00;99.90;;;;;;4992905;28;20121;-80
2021/12/20 02:38:46;;;;;;;17.60;2.25;;;5.90;99.90;;;;;;5009893;28;20046;-80
2021/12/20 02:41:22;;;;;;;22.33;3.00;;;5.90;99.90;;;;;;4985726;28;20049;-79
2021/12/20 02:43:57;;;;;;;13.70;2.42;;;5.90;99.90;;;;;;5012645;28;20053;-80
2021/12/20 02:48:56;;;;;;;19.67;2.80;;;5.90;99.90;;;;;;5004708;28;20081;-80
2021/12/20 02:51:27;;;;;;;16.92;2.47;;;5.90;99.90;;;;;;5012464;28;20089;-79
2021/12/20 02:53:54;;;;;;;18.05;2.75;;;5.90;99.90;;;;;;5014246;28;20421;-80
2021/12/20 02:56:23;;;;;;;16.30;2.13;;;5.80;99.90;;;;;;4996020;28;20038;-79
2021/12/20 02:58:48;;;;;;;24.02;3.15;;;5.90;99.90;;;;;;5012757;28;20057;-80
2021/12/20 03:01:14;;;;;;;12.27;1.92;;;5.90;99.90;;;;;;4988224;28;20038;-80
2021/12/20 03:03:40;;;;;;;12.07;1.77;;;5.90;99.90;;;;;;4988168;28;20171;-79
2021/12/20 03:06:18;;;;;;;15.07;2.38;;;5.90;99.90;;;;;;4996772;28;20100;-80
2021/12/20 03:08:47;;;;;;;18.13;3.00;;;5.90;99.90;;;;;;5005672;28;20054;-80
2021/12/20 03:11:13;;;;;;;13.63;2.55;;;5.90;99.90;;;;;;5004718;28;20042;-80
2021/12/20 03:13:39;;;;;;;15.40;3.15;;;5.80;99.90;;;;;;5018626;28;20061;-80
2021/12/20 03:16:05;;;;;;;15.80;2.50;;;5.80;99.90;;;;;;5012274;28;20081;-79
2021/12/20 03:18:31;;;;;;;15.75;2.08;;;5.80;99.90;;;;;;4996886;28;20560;-80
2021/12/20 03:20:57;;;;;;;19.00;2.00;;;5.80;99.90;;;;;;4996207;28;20056;-80
2021/12/20 03:23:22;;;;;;;9.98;2.53;;;5.80;99.90;;;;;;5003526;28;20042;-80
2021/12/20 03:25:48;;;;;;;10.82;1.90;;;5.90;99.90;;;;;;5007770;28;20037;-80
2021/12/20 03:28:14;;;;;;;19.25;2.35;;;5.90;99.90;;;;;;5012115;28;20497;-80
2021/12/20 03:30:40;;;;;;;20.27;2.92;;;5.80;99.90;;;;;;5010644;28;20034;-80
2021/12/20 03:33:05;;;;;;;13.32;2.70;;;5.80;99.90;;;;;;5021501;28;20053;-80
2021/12/20 03:35:31;;;;;;;13.75;1.92;;;5.80;99.90;;;;;;5011952;28;20062;-80
2021/12/20 03:37:57;;;;;;;15.45;2.53;;;5.90;99.90;;;;;;5003481;28;20120;-80
2021/12/20 03:40:23;;;;;;;12.27;2.05;;;5.80;99.90;;;;;;5003461;28;20033;-80
2021/12/20 03:42:49;;;;;;;15.80;1.77;;;5.80;99.90;;;;;;5014692;28;20112;-80
2021/12/20 03:45:15;;;;;;;20.55;2.53;;;5.70;99.90;;;;;;4992122;28;20445;-80
2021/12/20 03:47:42;;;;;;;12.88;2.00;;;5.80;99.90;;;;;;5040353;28;20452;-80
2021/12/20 03:50:09;;;;;;;9.73;1.88;;;5.70;99.90;;;;;;4995125;28;20105;-80
2021/12/20 03:52:36;;;;;;;10.65;1.92;;;5.80;99.90;;;;;;5019290;28;20057;-80
2021/12/20 03:55:02;;;;;;;12.85;2.05;;;5.80;99.90;;;;;;5011714;28;20048;-80
2021/12/20 03:57:27;;;;;;;13.02;1.88;;;5.70;99.90;;;;;;5012403;28;20041;-80
2021/12/20 03:59:53;;;;;;;19.40;2.80;;;5.70;99.90;;;;;;5019402;28;20049;-80
2021/12/20 04:02:21;;;;;;;9.18;1.80;;;7.00;99.90;;;;;;5013311;28;20046;-80
2021/12/20 04:04:47;;;;;;;9.57;1.48;;;5.70;99.90;;;;;;4994136;28;20049;-80
2021/12/20 04:07:13;;;;;;;10.73;1.70;;;5.60;99.90;;;;;;5011713;28;20409;-80
2021/12/20 04:09:38;;;;;;;10.48;1.83;;;5.60;99.90;;;;;;4999760;28;20048;-81
2021/12/20 04:12:04;;;;;;;11.40;2.28;;;5.70;99.90;;;;;;4995829;28;20520;-81
2021/12/20 04:14:30;;;;;;;11.40;3.47;;;5.70;99.90;;;;;;4994869;28;20062;-80
2021/12/20 04:16:55;;;;;;;17.80;5.50;;;5.70;99.90;;;;;;5004767;28;20096;-80
2021/12/20 04:19:21;;;;;;;15.63;4.18;;;5.70;99.90;;;;;;4994012;28;20056;-80
2021/12/20 04:21:47;;;;;;;12.43;2.17;;;5.70;99.90;;;;;;5019912;28;20124;-81
2021/12/20 04:24:12;;;;;;;11.18;1.92;;;5.70;99.90;;;;;;5008692;28;20050;-81
2021/12/20 04:26:38;;;;;;;11.27;1.65;;;6.60;99.90;;;;;;5023882;28;20046;-80
2021/12/20 04:29:04;;;;;;;11.00;1.65;;;5.60;99.90;;;;;;5032379;28;20116;-80
2021/12/20 04:31:29;;;;;;;10.32;1.55;;;5.60;99.90;;;;;;5011742;28;20061;-80
2021/12/20 04:33:55;;;;;;;13.02;2.47;;;5.60;99.90;;;;;;5010809;28;20165;-80
2021/12/20 04:36:21;;;;;;;10.30;1.42;;;6.10;99.90;;;;;;5024022;28;20409;-80
2021/12/20 04:38:47;;;;;;;11.02;1.67;;;5.60;99.90;;;;;;5025408;28;20128;-80
2021/12/20 04:41:13;;;;;;;10.73;2.13;;;5.60;99.90;;;;;;5010889;28;20048;-80
2021/12/20 04:43:39;;;;;;;15.35;1.60;;;5.60;99.90;;;;;;5002721;28;20033;-80
2021/12/20 04:46:05;;;;;;;9.43;1.17;;;5.60;99.90;;;;;;5002672;28;20046;-80
2021/12/20 04:48:31;;;;;;;10.32;1.60;;;5.50;99.90;;;;;;5010062;28;20038;-80
2021/12/20 04:50:56;;;;;;;7.68;1.15;;;5.50;99.90;;;;;;4993576;28;20076;-80
2021/12/20 04:53:22;;;;;;;11.98;1.85;;;5.50;99.90;;;;;;5006805;28;20048;-80
2021/12/20 04:55:48;;;;;;;8.65;1.42;;;5.50;99.90;;;;;;4985036;28;20378;-80
2021/12/20 04:58:14;;;;;;;10.95;2.08;;;5.50;99.90;;;;;;5010828;28;20049;-80
2021/12/20 05:00:40;;;;;;;7.93;1.27;;;5.60;99.90;;;;;;4983503;28;20132;-80
2021/12/20 05:03:07;;;;;;;13.93;1.98;;;5.50;99.90;;;;;;4995904;28;20533;-80
2021/12/20 05:05:33;;;;;;;11.13;2.58;;;6.80;99.90;;;;;;5019265;28;20044;-80
2021/12/20 05:07:59;;;;;;;9.77;2.22;;;5.50;99.90;;;;;;5016610;28;20055;-80
2021/12/20 05:10:34;;;;;;;10.48;1.63;;;7.30;99.90;;;;;;5002436;28;20064;-80
2021/12/20 05:13:06;;;;;;;12.07;1.65;;;5.50;99.90;;;;;;5001947;28;20091;-80
2021/12/20 05:15:33;;;;;;;13.75;1.40;;;5.50;99.90;;;;;;5002418;28;20069;-78
2021/12/20 05:17:59;;;;;;;7.50;1.73;;;5.50;99.90;;;;;;4996594;28;20120;-78
2021/12/20 05:20:26;;;;;;;13.80;1.83;;;5.30;99.90;;;;;;4993843;28;20103;-78
2021/12/20 05:22:52;;;;;;;10.23;1.52;;;5.50;99.90;;;;;;4998309;28;20080;-77
2021/12/20 05:25:18;;;;;;;10.80;1.63;;;5.50;99.90;;;;;;4991673;28;20034;-78
2021/12/20 05:27:44;;;;;;;14.63;1.80;;;5.50;99.90;;;;;;5013658;28;20056;-83
2021/12/20 05:30:11;;;;;;;9.70;3.15;;;5.50;99.90;;;;;;4995435;28;20693;-78
2021/12/20 05:32:37;;;;;;;16.67;1.92;;;5.50;99.90;;;;;;4995313;28;20049;-77
2021/12/20 05:35:05;;;;;;;12.57;2.42;;;6.10;99.90;;;;;;5016993;28;20069;-78
2021/12/20 05:37:31;;;;;;;12.73;1.60;;;5.40;99.90;;;;;;5024776;28;20449;-78
2021/12/20 05:39:56;;;;;;;6.97;1.27;;;5.30;99.90;;;;;;4993878;28;20058;-78
2021/12/20 05:42:22;;;;;;;12.40;1.77;;;5.40;99.90;;;;;;5012356;28;20173;-78
2021/12/20 05:44:50;;;;;;;6.88;1.15;;;5.20;99.90;;;;;;5031033;28;20037;-80
2021/12/20 05:47:16;;;;;;;20.73;1.77;;;5.20;99.90;;;;;;4996738;28;20053;-80
2021/12/20 05:49:42;;;;;;;10.70;2.08;;;5.40;99.90;;;;;;4998511;28;20123;-81
2021/12/20 05:52:08;;;;;;;13.93;2.03;;;6.70;99.90;;;;;;4992802;28;20504;-81
2021/12/20 05:54:33;;;;;;;11.55;1.70;;;4.40;99.90;;;;;;4988365;28;20054;-81
2021/12/20 05:56:59;;;;;;;8.77;1.35;;;5.00;99.90;;;;;;5039966;28;20037;-81
2021/12/20 05:59:25;;;;;;;16.23;2.25;;;6.30;99.90;;;;;;5010014;28;20401;-81
2021/12/20 06:01:50;;;;;;;10.82;3.28;;;5.30;99.90;;;;;;5009232;28;20046;-81
2021/12/20 06:04:16;;;;;;;10.65;2.05;;;4.90;99.90;;;;;;4989884;28;20078;-80
2021/12/20 06:06:41;;;;;;;7.55;1.60;;;4.90;99.90;;;;;;4984591;28;20054;-81
2021/12/20 06:09:07;;;;;;;8.45;1.35;;;4.80;99.90;;;;;;5034794;28;20421;-81
2021/12/20 06:11:33;;;;;;;15.75;2.30;;;4.80;99.90;;;;;;4986846;28;20080;-81
2021/12/20 06:13:58;;;;;;;10.73;2.10;;;6.00;99.90;;;;;;4990160;28;20054;-80
2021/12/20 06:16:24;;;;;;;11.93;1.60;;;4.70;99.90;;;;;;5009609;28;20046;-80
2021/12/20 06:18:53;;;;;;;8.73;1.65;;;4.70;99.90;;;;;;5010028;28;20045;-80
2021/12/20 06:21:19;;;;;;;12.35;1.98;;;4.60;99.90;;;;;;4993346;28;20121;-80
2021/12/20 06:23:45;;;;;;;9.70;1.40;;;4.60;99.90;;;;;;4992960;28;20431;-81
2021/12/20 06:26:11;;;;;;;9.30;2.83;;;4.40;99.90;;;;;;5012778;28;20042;-81
2021/12/20 06:28:36;;;;;;;11.65;2.13;;;5.50;99.90;;;;;;5005796;28;20057;-81
2021/12/20 06:31:02;;;;;;;10.68;1.80;;;4.40;99.90;;;;;;5005330;28;20042;-81
2021/12/20 06:33:28;;;;;;;8.93;1.50;;;4.30;99.90;;;;;;5004413;28;20052;-81
2021/12/20 06:35:54;;;;;;;14.32;2.25;;;4.20;99.90;;;;;;5004916;28;20401;-80
2021/12/20 06:38:21;;;;;;;14.10;2.20;;;4.20;99.90;;;;;;5029246;28;20368;-80
2021/12/20 06:40:48;;;;;;;10.57;1.65;;;4.10;99.90;;;;;;5013097;28;20045;-80
2021/12/20 06:43:14;;;;;;;6.70;1.52;;;4.00;99.90;;;;;;5010810;28;20046;-81
2021/12/20 06:45:40;;;;;;;10.43;1.60;;;6.00;99.90;;;;;;5040316;28;20401;-81
2021/12/20 06:48:06;;;;;;;11.93;2.03;;;5.80;99.90;;;;;;4996088;28;20045;-80
2021/12/20 06:50:32;;;;;;;8.88;1.50;;;4.30;99.90;;;;;;5012599;28;20042;-80
2021/12/20 06:52:58;;;;;;;9.73;2.00;;;4.70;99.90;;;;;;5021679;28;20061;-81
2021/12/20 06:55:24;;;;;;;13.20;1.73;;;3.80;99.90;;;;;;5013724;28;20071;-81
2021/12/20 06:57:50;;;;;;;11.27;2.13;;;3.80;99.90;;;;;;5029130;28;20379;-80
2021/12/20 07:00:16;;;;;;;8.27;1.60;;;3.70;99.90;;;;;;5023013;28;20040;-80
2021/12/20 07:02:42;;;;;;;9.30;1.92;;;4.30;99.90;;;;;;5012022;28;20057;-81
2021/12/20 07:05:08;;;;;;;8.18;1.95;;;3.50;99.90;;;;;;5012481;28;20037;-81
2021/12/20 07:07:34;;;;;;;10.13;2.90;;;3.60;99.90;;;;;;5044914;28;20093;-80
2021/12/20 07:10:02;;;;;;;10.32;1.92;;;3.60;99.90;;;;;;4996545;28;20037;-80
2021/12/20 07:12:28;;;;;;;8.60;1.77;;;3.40;99.90;;;;;;5004086;28;20034;-81
2021/12/20 07:14:54;;;;;;;18.73;2.35;;;3.20;99.90;;;;;;5008677;28;20050;-80
2021/12/20 07:17:20;;;;;;;21.65;7.55;;;2.70;99.90;;;;;;4959897;28;20048;-80
2021/12/20 07:19:46;;;;;;;17.70;5.05;;;3.30;99.90;;;;;;4976054;28;20133;-81
2021/12/20 07:22:12;;;;;;;14.68;2.25;;;5.30;99.90;;;;;;4960012;28;20129;-81
2021/12/20 07:24:38;;;;;;;9.65;2.65;;;5.30;99.90;;;;;;4976183;28;20051;-81
2021/12/20 07:27:04;;;;;;;9.35;2.30;;;3.00;99.90;;;;;;4960182;28;20042;-81
2021/12/20 07:29:29;;;;;;;9.52;2.10;;;3.30;99.90;;;;;;4958887;28;20066;-80
2021/12/20 07:31:55;;;;;;;12.70;2.47;;;3.30;99.90;;;;;;4959380;28;20043;-81
2021/12/20 07:34:21;;;;;;;9.98;1.83;;;3.10;99.90;;;;;;4998615;28;20046;-80
2021/12/20 07:36:46;;;;;;;8.27;1.73;;;4.60;99.90;;;;;;4966310;28;20049;-80
2021/12/20 07:39:12;;;;;;;8.10;2.25;;;3.10;99.90;;;;;;4970092;28;20404;-80
2021/12/20 07:41:37;;;;;;;8.98;1.88;;;3.10;99.90;;;;;;4978260;28;20041;-80
2021/12/20 07:44:03;;;;;;;17.48;2.67;;;3.00;99.90;;;;;;4989440;28;20072;-81
2021/12/20 07:46:29;;;;;;;12.55;2.25;;;3.10;99.90;;;;;;4972914;28;20141;-81
2021/12/20 07:48:54;;;;;;;10.88;2.50;;;3.00;99.90;;;;;;4974483;28;21411;-79
2021/12/20 07:51:22;;;;;;;9.32;2.75;;;4.20;99.90;;;;;;4984899;28;20042;-80
2021/12/20 07:53:48;;;;;;;14.15;2.63;;;3.30;99.90;;;;;;4990852;28;20080;-80
2021/12/20 07:56:16;;;;;;;8.75;2.67;;;3.00;99.90;;;;;;4987783;28;20073;-80
2021/12/20 07:58:42;;;;;;;11.55;2.22;;;2.90;99.90;;;;;;4970757;28;20041;-80
2021/12/20 08:01:07;;;;;;;12.00;2.50;;;2.90;99.90;;;;;;4987782;28;20085;-80
2021/12/20 08:03:37;;;;;;;8.05;3.05;;;2.80;99.90;;;;;;4972396;28;20180;-80
2021/12/20 08:06:03;;;;;;;10.27;2.50;;;3.10;99.90;;;;;;4988601;28;20042;-80
2021/12/20 08:08:29;;;;;;;13.35;3.33;;;3.80;99.90;;;;;;4969137;28;20545;-80
2021/12/20 08:10:55;;;;;;;12.77;2.10;;;3.00;99.90;;;;;;4993917;28;20042;-80
2021/12/20 08:13:21;;;;;;;10.82;2.42;;;3.10;99.90;;;;;;4997809;28;20060;-81
2021/12/20 08:15:46;;;;;;;13.25;4.75;;;2.70;99.90;;;;;;5024642;28;20045;-80
2021/12/20 08:18:13;;;;;;;10.68;3.45;;;2.80;99.90;;;;;;5040887;28;20049;-81
2021/12/20 08:20:39;;;;;;;5.50;1.98;;;2.60;99.90;;;;;;5033556;28;20119;-80
2021/12/20 08:23:04;;;;;;;11.60;2.05;;;2.70;99.90;;;;;;5008331;28;20081;-81
2021/12/20 08:25:30;;;;;;;8.07;2.40;;;2.50;99.90;;;;;;5024539;28;20155;-80
2021/12/20 08:27:56;;;;;;;10.57;4.25;;;2.60;99.90;;;;;;5043253;28;20106;-81
2021/12/20 08:30:22;;;;;;;11.02;3.08;;;2.60;99.90;;;;;;5041309;28;20398;-81
2021/12/20 08:32:48;;;;;;;13.00;3.00;;;3.00;99.90;;;;;;5040700;28;20128;-81
2021/12/20 08:35:14;;;;;;;8.32;2.95;;;2.80;99.90;;;;;;5040096;28;20394;-81
2021/12/20 08:37:41;;;;;;;15.35;3.38;;;1.80;99.90;;;;;;5021316;28;20116;-81
2021/12/20 08:40:10;;;;;;;12.75;3.97;;;2.70;99.90;;;;;;5003007;28;20461;-81
2021/12/20 08:42:36;;;;;;;18.98;3.72;;;2.70;99.90;;;;;;5002657;28;20481;-81
2021/12/20 08:45:03;;;;;;;15.40;4.93;;;2.70;99.90;;;;;;5022729;28;20049;-81
2021/12/20 08:47:32;;;;;;;10.70;3.00;;;2.70;99.90;;;;;;5020257;28;20556;-81
2021/12/20 08:49:59;;;;;;;14.88;2.83;;;2.90;99.90;;;;;;5023471;28;20048;-81
2021/12/20 08:52:24;;;;;;;12.13;3.22;;;3.00;99.90;;;;;;5023222;28;20048;-81
2021/12/20 08:54:50;;;;;;;16.85;5.22;;;2.70;99.90;;;;;;5038908;28;20042;-81
2021/12/20 08:57:15;;;;;;;14.65;3.42;;;2.70;99.90;;;;;;5021879;28;20041;-81
2021/12/20 08:59:41;;;;;;;8.43;3.05;;;2.70;99.90;;;;;;4974248;28;20075;-81
2021/12/20 09:02:08;;;;;;;10.77;3.15;;;2.70;99.90;;;;;;5023141;28;20053;-81
2021/12/20 09:04:35;;;;;;;17.15;3.20;;;2.70;99.90;;;;;;5034911;28;20046;-81
2021/12/20 09:07:01;;;;;;;17.13;3.15;;;2.70;99.90;;;;;;5006607;28;20084;-81
2021/12/20 09:09:26;;;;;;;22.15;4.50;;;2.70;99.90;;;;;;4993390;28;20136;-81
2021/12/20 09:11:52;;;;;;;17.55;3.22;;;2.80;99.90;;;;;;4993770;28;20157;-80
2021/12/20 09:14:18;;;;;;;15.23;4.63;;;2.80;99.90;;;;;;5010033;28;20080;-80
2021/12/20 09:16:44;;;;;;;11.88;2.80;;;2.60;99.90;;;;;;5045454;28;20374;-81
2021/12/20 09:19:09;;;;;;;9.63;2.55;;;3.60;99.90;;;;;;5045442;28;20034;-82
2021/12/20 09:21:35;;;;;;;9.70;3.03;;;2.70;99.90;;;;;;5043794;28;20056;-80
2021/12/20 09:24:03;;;;;;;9.98;2.78;;;2.30;99.90;;;;;;5042532;28;20480;-80
2021/12/20 09:26:29;;;;;;;7.63;2.35;;;2.80;99.90;;;;;;5025844;28;20038;-80
2021/12/20 09:28:54;;;;;;;13.07;2.38;;;2.80;99.90;;;;;;5058157;28;20046;-79
2021/12/20 09:31:20;;;;;;;16.92;3.08;;;4.50;99.90;;;;;;5009371;28;20058;-80
2021/12/20 09:33:45;;;;;;;13.05;2.55;;;3.20;99.90;;;;;;5045070;28;20072;-79
2021/12/20 09:36:11;;;;;;;14.00;3.38;;;2.90;99.90;;;;;;5042619;28;20041;-79
2021/12/20 09:38:37;;;;;;;12.15;2.72;;;2.40;99.90;;;;;;5044406;28;20106;-78
2021/12/20 09:43:43;;;;;;;13.48;3.05;;;3.10;99.90;;;;;;5027751;28;20181;-78
2021/12/20 09:46:09;;;;;;;15.40;3.35;;;3.20;99.90;;;;;;5028539;28;20088;-82
2021/12/20 09:48:35;;;;;;;23.45;3.67;;;2.80;99.90;;;;;;5042673;28;20596;-78
2021/12/20 09:51:02;;;;;;;19.50;3.97;;;3.20;99.90;;;;;;5045271;28;20045;-79
2021/12/20 09:53:28;;;;;;;17.42;3.38;;;3.30;99.90;;;;;;5043875;28;20041;-79
2021/12/20 09:55:54;;;;;;;18.92;2.95;;;3.30;99.90;;;;;;5029374;28;20045;-79
2021/12/20 09:58:23;;;;;;;27.58;4.40;;;3.50;99.90;;;;;;5042824;28;20037;-78
2021/12/20 10:00:49;;;;;;;20.55;3.92;;;3.00;99.90;;;;;;5010100;28;20559;-78
2021/12/20 10:03:19;;;;;;;30.27;4.28;;;3.50;99.90;;;;;;5044435;28;20378;-78
2021/12/20 10:05:45;;;;;;;30.80;4.45;;;3.50;99.90;;;;;;5040769;28;20038;-79
2021/12/20 10:08:19;;;;;;;54.75;22.70;;;3.50;99.90;;;;;;5044459;28;20405;-79
2021/12/20 10:10:47;;;;;;;52.97;16.05;;;3.80;99.90;;;;;;5023204;28;20437;-78
2021/12/20 10:13:33;;;;;;;42.38;9.65;;;3.50;99.90;;;;;;5011572;28;20057;-77
2021/12/20 10:16:01;;;;;;;35.10;5.80;;;3.80;99.90;;;;;;5040741;28;20076;-79
2021/12/20 10:18:28;;;;;;;24.63;4.90;;;3.80;99.90;;;;;;5006965;28;20048;-78
2021/12/20 10:20:59;;;;;;;25.65;4.00;;;3.90;99.90;;;;;;5010764;28;20034;-79
2021/12/20 10:23:33;;;;;;;26.05;4.18;;;4.90;99.90;;;;;;5043998;28;20144;-80
2021/12/20 10:26:04;;;;;;;31.27;4.53;;;3.90;99.90;;;;;;4999386;28;20045;-78
2021/12/20 10:28:33;;;;;;;28.88;4.57;;;4.50;99.90;;;;;;5026429;28;20045;-78
2021/12/20 10:31:04;;;;;;;27.40;4.07;;;4.10;99.90;;;;;;5025256;28;20125;-80
2021/12/20 10:33:29;;;;;;;39.40;9.50;;;3.80;99.90;;;;;;5042803;28;20045;-80
2021/12/20 10:36:01;;;;;;;39.30;5.57;;;4.30;99.90;;;;;;5027546;28;20251;-79
2021/12/20 10:38:41;;;;;;;43.92;4.75;;;5.10;99.90;;;;;;5039524;28;20068;-78
2021/12/20 10:41:12;;;;;;;34.45;4.82;;;4.10;99.90;;;;;;5008562;28;20045;-77
2021/12/20 10:43:52;;;;;;;23.25;4.90;;;3.90;99.90;;;;;;5041856;28;20401;-77
2021/12/20 10:46:29;;;;;;;26.55;4.80;;;4.30;99.90;;;;;;5044062;28;20048;-78
2021/12/20 10:49:14;;;;;;;34.67;5.28;;;4.50;99.90;;;;;;5014568;28;20061;-78
2021/12/20 10:51:41;;;;;;;;;;;4.20;99.90;;;;;;5043714;28;20033;-78
2021/12/20 10:54:12;;;;;;;24.48;4.47;;;4.20;99.90;;;;;;5061797;28;19924;-79
2021/12/20 10:57:03;;;;;;;33.95;5.95;;;4.70;99.90;;;;;;5043360;28;20441;-78
2021/12/20 10:59:31;;;;;;;25.42;4.15;;;4.60;99.90;;;;;;5010811;28;20096;-77
2021/12/20 11:03:04;;;;;;;24.35;4.40;;;4.70;99.90;;;;;;5012168;28;20400;-78
2021/12/20 11:04:56;;;;;;;30.83;4.93;;;4.70;99.90;;;;;;5012118;28;20053;-80
2021/12/20 11:09:55;;;;;;;31.23;4.68;;;4.60;99.90;;;;;;5012827;28;20046;-78
2021/12/20 11:12:26;;;;;;;30.45;4.88;;;4.70;99.90;;;;;;4995996;28;20038;-79
2021/12/20 11:14:57;;;;;;;21.73;4.15;;;4.90;99.90;;;;;;5023546;28;20188;-81
2021/12/20 11:17:23;;;;;;;26.13;4.95;;;4.90;99.90;;;;;;5045292;28;20091;-80
2021/12/20 11:19:51;;;;;;;24.67;5.05;;;5.00;99.90;;;;;;5027372;28;20048;-80
2021/12/20 11:22:20;;;;;;;30.83;5.15;;;5.00;99.90;;;;;;5028314;28;20046;-80
2021/12/20 11:24:59;;;;;;;25.85;6.45;;;5.00;99.90;;;;;;5011724;28;20037;-78
2021/12/20 11:27:34;;;;;;;40.78;6.60;;;5.10;99.90;;;;;;5040043;28;20048;-78
2021/12/20 11:30:09;;;;;;;30.50;5.72;;;5.00;99.90;;;;;;5041241;28;20104;-79
2021/12/20 11:32:35;;;;;;;28.20;4.97;;;5.10;99.90;;;;;;5026411;28;20042;-79
2021/12/20 11:35:01;;;;;;;32.92;5.32;;;5.10;99.90;;;;;;5013208;28;20038;-79
2021/12/20 11:37:28;;;;;;;29.17;3.80;;;6.60;99.90;;;;;;5017144;28;20034;-80
2021/12/20 11:39:56;;;;;;;23.95;4.43;;;5.20;99.90;;;;;;5024154;28;20045;-79
2021/12/20 11:42:22;;;;;;;34.33;6.13;;;6.70;99.90;;;;;;5046675;28;20046;-79
2021/12/20 11:44:53;;;;;;;19.45;3.95;;;5.30;99.90;;;;;;5030083;28;20056;-79
2021/12/20 11:47:58;;;;;;;25.02;4.57;;;5.30;99.90;;;;;;5047466;28;20519;-80
2021/12/20 11:50:31;;;;;;;19.55;3.90;;;5.40;99.90;;;;;;4993900;28;20060;-80
2021/12/20 11:53:10;;;;;;;22.15;4.05;;;5.40;99.90;;;;;;5063476;28;20052;-80
2021/12/20 11:55:43;;;;;;;31.33;4.13;;;5.40;99.90;;;;;;5029808;28;20127;-78
2021/12/20 11:58:25;;;;;;;36.13;5.15;;;5.40;99.90;;;;;;5064358;28;20045;-79
2021/12/20 12:00:55;;;;;;;24.77;4.78;;;5.80;99.90;;;;;;5030707;28;20045;-79
2021/12/20 12:03:24;;;;;;;24.13;4.03;;;5.40;99.90;;;;;;5024987;28;20067;-79
2021/12/20 12:05:54;;;;;;;19.63;3.33;;;5.40;99.90;;;;;;5056148;28;20410;-80
2021/12/20 12:08:28;;;;;;;27.48;4.03;;;5.40;99.90;;;;;;5021023;28;20041;-80
2021/12/20 12:11:22;;;;;;;30.60;3.70;;;5.40;99.90;;;;;;5038747;28;20046;-79
2021/12/20 12:14:08;;;;;;;20.50;3.90;;;5.40;99.90;;;;;;5023011;28;20049;-79
2021/12/20 12:17:08;;;;;;;19.33;3.55;;;5.40;99.90;;;;;;5011238;28;20053;-79
2021/12/20 12:19:50;;;;;;;26.13;3.50;;;5.50;99.90;;;;;;5055228;28;20456;-80
2021/12/20 12:22:41;;;;;;;18.92;3.40;;;5.40;99.90;;;;;;5054071;28;20095;-80
2021/12/20 12:25:13;;;;;;;18.45;3.08;;;5.50;99.90;;;;;;5031578;28;20433;-80
2021/12/20 12:27:41;;;;;;;18.38;2.72;;;5.50;99.90;;;;;;5049724;28;20046;-81
2021/12/20 12:30:13;;;;;;;21.48;3.33;;;5.50;99.90;;;;;;5023976;28;20404;-81
2021/12/20 12:33:01;;;;;;;18.33;2.88;;;5.50;99.90;;;;;;5029799;28;20042;-79
2021/12/20 12:35:42;;;;;;;15.48;2.10;;;5.40;99.90;;;;;;4986467;28;20053;-80
2021/12/20 12:38:32;;;;;;;16.48;2.50;;;5.50;99.90;;;;;;5010456;28;20046;-80
2021/12/20 12:41:07;;;;;;;11.82;1.83;;;5.50;99.90;;;;;;5012197;28;20128;-81
2021/12/20 12:43:54;;;;;;;14.20;2.08;;;5.50;99.90;;;;;;5020556;28;20432;-80
2021/12/20 12:46:39;;;;;;;8.48;1.77;;;5.40;99.90;;;;;;4988677;28;20045;-80
2021/12/20 12:49:24;;;;;;;11.88;2.67;;;5.40;99.90;;;;;;5030662;28;20116;-81
2021/12/20 12:51:53;;;;;;;12.18;1.95;;;5.40;99.90;;;;;;5026230;28;20100;-80
2021/12/20 12:54:53;;;;;;;9.23;1.90;;;5.40;99.90;;;;;;5017000;28;20486;-81
2021/12/20 12:57:19;;;;;;;14.23;2.83;;;5.50;99.90;;;;;;5010710;28;20033;-80
2021/12/20 12:59:47;;;;;;;22.55;10.07;;;5.40;99.90;;;;;;5009959;28;20046;-80
2021/12/20 13:02:23;;;;;;;20.08;3.00;;;5.40;99.90;;;;;;5011116;28;20096;-80
2021/12/20 13:04:50;;;;;;;12.57;2.42;;;5.40;99.90;;;;;;5024659;28;20119;-80
2021/12/20 13:07:28;;;;;;;18.88;2.50;;;5.40;99.90;;;;;;5010063;28;20176;-80
2021/12/20 13:10:02;;;;;;;13.80;2.33;;;5.40;99.90;;;;;;4993974;28;20038;-81
2021/12/20 13:12:38;;;;;;;9.93;2.05;;;5.40;99.90;;;;;;4979390;28;20038;-82
2021/12/20 13:17:56;;;;;;;9.77;1.30;;;5.40;99.90;;;;;;4987788;28;20561;-81